<<    August 2010    >>
Datum    Temp.       Tempmin      Tempmax    Taup.       Taup.min      Taup.max    Feuchte    Feuchtemin    Feuchtemax    Druck    Druckmin    Druckmax    Regen    Wind    Benmax  
  01.08.2010  21,2    17,0    03:42    27,7    16:26  15,0    11,4    20:48    18,0    09:14  70,4    42    16:32    94    06:27  1012,4    1011    13:20    1015    20:34  0,0  1,8  16,9  
  02.08.2010  18,4    15,3    06:27    23,6    16:05  13,8    11,9    17:58    16,1    15:16  75,2    51    16:30    90    06:37  1014,6    1013    01:19    1016    09:49  0,0  1,3  10,8  
  03.08.2010  18,5    15,2    06:19    23,7    16:37  12,2    8,1    16:00    14,9    03:48  69,3    38    15:54    94    05:43  1015,2    1014    04:34    1017    10:49  0,0  2,5  18,0  
  04.08.2010  18,3    15,9    23:59    23,2    12:47  13,7    9,8    13:12    17,6    17:44  76,5    44    12:52    98    23:59  1009,2    1005    18:49    1015    01:19  3,6  1,4  15,1  
  05.08.2010  17,4    14,5    05:16    21,8    13:55  12,1    7,8    16:18    15,7    01:54  74,1    43    14:00    98    00:00  1009,1    1005    01:04    1015    21:49  0,0  2,9  17,3  
  06.08.2010  17,9    12,2    06:07    24,2    17:34  8,6    4,6    20:02    12,5    08:29  58,5    32    16:55    90    07:31  1017,2    1014    00:00    1019    09:33  0,0  0,3  7,2  
  07.08.2010  19,9    12,5    06:24    29,1    15:51  9,7    7,7    18:08    13,4    23:39  55,9    29    15:19    80    06:41  1017,7    1015    17:18    1019    00:00  0,0  0,5  12,2  
  08.08.2010  18,3    16,2    08:36    23,7    15:20  15,2    10,3    15:48    17,3    12:14  82,7    51    15:48    97    08:53  1015,6    1014    05:33    1018    22:18  5,8  2,2  16,6  
  09.08.2010  18,7    14,4    05:55    23,5    17:37  13,0    9,5    19:35    15,3    10:30  71,5    45    17:43    94    06:27  1017,2    1015    16:33    1019    03:03  0,9  1,1  10,1  
  10.08.2010  20,8    14,8    05:26    28,7    16:19  12,6    9,3    16:45    15,3    11:04  64,0    31    16:01    91    05:34  1013,7    1011    16:47    1017    00:33  0,0  1,6  14,0  
  11.08.2010  19,5    17,2    05:04    23,7    17:32  16,8    13,7    18:26    19,7    11:20  86,0    56    17:38    98    23:59  1012,1    1011    08:17    1014    00:47  19,9  1,8  13,7  
  12.08.2010  18,2    14,5    06:23    24,5    16:59  13,9    8,4    18:22    17,9    12:36  79,2    38    17:11    98    00:00  1013,2    1011    01:17    1016    22:02  0,0  1,7  16,2  
  13.08.2010  17,4    13,3    06:41    22,4    13:42  11,8    9,6    14:14    13,9    08:45  71,1    48    14:00    93    07:19  1015,9    1015    01:17    1017    00:02  0,9  1,0  11,9  
  14.08.2010  18,9    11,3    06:34    26,3    16:13  10,8    8,1    14:22    14,1    11:00  64,6    34    14:22    95    07:13  1016,1    1014    17:32    1018    07:02  0,0  1,9  15,8  
  15.08.2010  17,2    16,2    22:38    20,4    00:00  14,2    9,8    00:06    16,7    19:11  83,8    51    00:00    98    12:15  1011,2    1007    19:16    1015    00:00  31,3  2,4  16,6  
  16.08.2010  17,7    15,2    06:22    22,0    17:12  15,9    14,9    06:22    18,1    11:45  89,7    68    17:16    98    00:00  1006,7    1005    05:16    1008    00:00  0,9  1,0  14,4  
  17.08.2010  15,8    14,7    20:18    17,5    02:27  14,4    10,7    15:58    16,9    02:39  91,5    69    15:38    98    03:00  1008,2    1006    03:46    1011    18:01  25,8  3,8  26,6  
  18.08.2010  17,5    15,2    00:00    21,9    16:45  13,5    9,1    23:53    16,8    10:59  78,6    55    17:24    95    10:37  1006,9    1005    11:01    1010    21:46  0,0  2,4  26,6  
  19.08.2010  18,1    13,3    06:38    23,3    16:34  9,9    7,6    16:47    12,7    09:19  60,9    38    16:42    82    07:38  1014,8    1010    00:00    1019    21:46  0,0  1,6  16,9  
  20.08.2010  20,8    13,8    06:28    29,7    16:18  12,4    10,0    02:32    15,4    12:08  61,5    36    16:34    82    07:05  1018,7    1017    16:45    1020    10:00  0,0  1,4  13,7  
  21.08.2010  23,1    16,8    06:25    30,4    15:57  15,2    13,8    13:22    17,6    11:43  63,6    38    15:28    87    06:36  1020,3    1018    23:59    1023    11:15  0,0  1,6  15,5  
  22.08.2010  21,9    18,6    05:54    27,4    15:23  17,6    15,9    03:37    19,8    20:29  77,9    52    15:48    98    20:57  1014,7    1010    23:59    1019    02:00  4,6  0,8  17,6  
  23.08.2010  20,4    18,8    06:35    23,8    15:14  17,8    14,4    21:12    22,2    13:19  86,1    63    15:34    98    00:00  1003,2    1000    13:16    1010    00:15  3,0  2,6  20,2  
  24.08.2010  18,6    15,5    06:06    22,3    15:14  9,1    4,4    20:03    15,4    01:00  56,1    35    15:16    79    01:00  1008,3    1002    00:00    1014    22:29  0,0  3,8  20,9  
  25.08.2010  18,0    13,7    05:45    22,8    14:59  8,6    5,3    00:11    11,1    10:03  55,3    37    17:22    75    07:30  1015,8    1013    23:29    1018    11:59  0,0  2,8  16,2  
  26.08.2010  18,6    15,2    04:45    21,4    17:57  17,4    10,5    00:02    20,1    16:39  92,8    60    00:00    98    06:06  1008,4    1003    23:44    1014    00:00  12,3  1,1  11,5  
  27.08.2010  17,3    13,5    23:45    19,5    14:28  16,2    10,2    21:07    19,2    14:28  93,5    77    20:49    98    00:00  1004,0    1001    02:14    1011    22:44  30,2  2,6  20,2  
  28.08.2010  13,3    11,1    23:56    17,5    12:42  11,9    8,1    12:52    15,9    14:56  91,8    56    12:46    98    23:59  1015,3    1011    00:00    1018    13:29  18,1  2,0  20,9  
  29.08.2010  13,3    9,8    21:49    17,5    15:56  11,0    7,8    20:27    13,8    09:24  87,2    56    16:35    98    00:00  1012,2    1005    23:59    1017    00:00  5,8  2,8  19,1  
  30.08.2010  12,8    9,9    05:03    16,6    17:22  11,4    9,4    00:41    14,8    15:48  91,5    73    17:45    98    00:00  1011,0    1003    05:13    1020    23:43  23,8  5,1  27,0  
  31.08.2010  14,9    10,9    04:06    20,4    16:10  9,6    5,7    16:16    13,4    11:04  74,1    39    16:16    98    04:06  1021,8    1020    00:00    1023    08:43  0,0  2,7  13,7  
 
  Gesamt  18,2  9,8            30,4            13,1  4,4            22,2            75,3  29            98            1012,9  1000            1023            186,8  2,0  27,0  
 
  Mittelwert  18,2  14,4            23,2            13,1  9,6            16,2            75,3  47,9            93,2            1012,9  1009,8            1016,3            6,0  2,0  16,6  
  Minimum  12,8  9,8            16,6            8,6  4,4            11,1            55,3  29,0            75,0            1003,2  1000,0            1008,0            0,0  0,3  7,2  
  Maximum  23,1  18,8            30,4            17,8  15,9            22,2            93,5  77,0            98,0            1021,8  1020,0            1023,0            31,3  5,1  27,0  

  Heie Tage    Tmax >=30C     1  
  Sommertage    Tmax >=25C     7  
  Warme Tage    Tmax >=20C     26  
  Kalte Tage    Tmax  <10C     0  
  Frosttage    Tmin  <0C     0  
  Eistage    Tmax  <0C     0  
  Regentage > 0 mm    15  
  Regentage > 2 mm    12  
  Regentage > 10 mm    7  
  Regentage > 20 mm    4